createdAt,value
2022-10-21T00:00:43.070Z,72.59
2022-10-21T00:03:10.835Z,72.89
2022-10-21T00:05:38.627Z,72.78
2022-10-21T00:08:06.495Z,72.61
2022-10-21T00:13:08.758Z,71.75
2022-10-21T00:15:36.631Z,71.96
2022-10-21T00:18:05.089Z,72.29
2022-10-21T00:20:36.010Z,72.62
2022-10-21T00:23:06.644Z,72.12
2022-10-21T00:25:35.769Z,71.51
2022-10-21T00:28:03.527Z,70.52
2022-10-21T00:30:31.324Z,71.66
2022-10-21T00:33:02.218Z,71.41
2022-10-21T00:35:34.552Z,71.96
2022-10-21T00:38:02.402Z,72.25
2022-10-21T00:40:30.250Z,72.24
2022-10-21T00:42:59.605Z,72.63
2022-10-21T00:45:29.505Z,72.70
2022-10-21T00:48:02.444Z,73.26
2022-10-21T00:50:37.524Z,72.80
2022-10-21T00:53:11.953Z,73.22
2022-10-21T00:55:44.854Z,73.40
2022-10-21T00:58:14.683Z,73.16
2022-10-21T01:00:42.609Z,72.83
2022-10-21T01:03:10.569Z,72.48
2022-10-21T01:05:40.331Z,72.72
2022-10-21T01:08:08.162Z,72.50
2022-10-21T01:10:36.144Z,71.98
2022-10-21T01:13:16.177Z,72.10
2022-10-21T01:15:54.343Z,71.38
2022-10-21T01:18:29.142Z,71.53
2022-10-21T01:21:10.368Z,71.18
2022-10-21T01:24:17.621Z,71.73
2022-10-21T01:27:20.656Z,71.53
2022-10-21T01:30:12.255Z,71.78
2022-10-21T01:32:57.065Z,71.30
2022-10-21T01:35:29.636Z,72.36
2022-10-21T01:38:09.012Z,71.70
2022-10-21T01:40:42.652Z,72.09
2022-10-21T01:43:17.818Z,72.26
2022-10-21T01:45:50.170Z,72.18
2022-10-21T01:48:23.014Z,72.49
2022-10-21T01:50:56.242Z,72.24
2022-10-21T01:53:29.875Z,72.14
2022-10-21T01:55:59.786Z,73.20
2022-10-21T01:58:32.453Z,72.79
2022-10-21T02:01:02.746Z,73.63
2022-10-21T02:03:36.111Z,73.03
2022-10-21T02:06:04.409Z,73.10
2022-10-21T02:08:32.333Z,73.65
2022-10-21T02:11:03.441Z,73.71
2022-10-21T02:13:36.952Z,73.64
2022-10-21T02:16:09.965Z,74.02
2022-10-21T02:18:39.105Z,73.84
2022-10-21T02:21:11.303Z,73.72
2022-10-21T02:23:43.760Z,72.94
2022-10-21T02:26:12.029Z,73.36
2022-10-21T02:31:28.863Z,72.69
2022-10-21T02:34:08.826Z,73.22
2022-10-21T02:36:45.549Z,73.61
2022-10-21T02:39:20.599Z,72.54
2022-10-21T02:41:50.371Z,72.78
2022-10-21T02:44:18.289Z,73.23
2022-10-21T02:46:48.518Z,73.52
2022-10-21T02:49:17.642Z,72.79
2022-10-21T02:51:46.541Z,72.86
2022-10-21T02:54:14.796Z,72.71
2022-10-21T02:56:42.576Z,73.02
2022-10-21T02:59:10.477Z,72.97
2022-10-21T03:01:38.264Z,73.14
2022-10-21T03:04:06.271Z,72.86
2022-10-21T03:06:35.553Z,71.84
2022-10-21T03:09:03.480Z,72.16
2022-10-21T03:11:31.285Z,71.81
2022-10-21T03:13:59.109Z,71.94
2022-10-21T03:16:27.049Z,70.93
2022-10-21T03:18:54.824Z,71.10
2022-10-21T03:21:22.612Z,71.33
2022-10-21T03:23:51.817Z,72.44
2022-10-21T03:26:19.653Z,71.74
2022-10-21T03:28:47.417Z,72.18
2022-10-21T03:31:15.198Z,72.24
2022-10-21T03:33:42.956Z,71.05
2022-10-21T03:36:10.777Z,71.14
2022-10-21T03:38:38.540Z,70.23
2022-10-21T03:41:07.764Z,70.20
2022-10-21T03:43:35.537Z,71.54
2022-10-21T03:46:03.308Z,71.93
2022-10-21T03:48:31.056Z,72.40
2022-10-21T03:50:58.926Z,71.74
2022-10-21T03:53:42.180Z,72.96
2022-10-21T03:56:12.729Z,73.30
2022-10-21T03:58:40.576Z,72.67
2022-10-21T04:01:11.928Z,72.91
2022-10-21T04:03:40.134Z,73.01
2022-10-21T04:06:08.007Z,71.81
2022-10-21T04:08:35.826Z,71.97
2022-10-21T04:11:03.720Z,72.46
2022-10-21T04:13:32.930Z,72.21
2022-10-21T04:16:01.931Z,73.01
2022-10-21T04:18:29.765Z,73.06
2022-10-21T04:20:57.683Z,71.95
2022-10-21T04:23:25.578Z,72.32
2022-10-21T04:25:53.359Z,71.74
2022-10-21T04:28:21.226Z,72.20
2022-10-21T04:30:51.778Z,72.19
2022-10-21T04:33:19.656Z,72.44
2022-10-21T04:35:47.506Z,72.93
2022-10-21T04:38:15.596Z,72.15
2022-10-21T04:40:43.592Z,71.27
2022-10-21T04:43:11.432Z,71.58
2022-10-21T04:45:39.739Z,71.55
2022-10-21T04:48:09.214Z,70.50
2022-10-21T04:50:37.040Z,70.41
2022-10-21T04:53:04.869Z,69.26
2022-10-21T04:55:32.670Z,69.41
2022-10-21T04:58:00.589Z,70.32
2022-10-21T05:00:28.414Z,70.32
2022-10-21T05:02:56.381Z,70.13
2022-10-21T05:05:25.559Z,70.24
2022-10-21T05:07:53.425Z,70.47
2022-10-21T05:10:22.393Z,70.77
2022-10-21T05:12:50.232Z,70.17
2022-10-21T05:15:18.253Z,70.54
2022-10-21T05:17:46.029Z,69.82
2022-10-21T05:20:14.057Z,70.39
2022-10-21T05:22:43.197Z,69.57
2022-10-21T05:25:11.178Z,69.48
2022-10-21T05:27:39.076Z,69.68
2022-10-21T05:30:08.051Z,69.67
2022-10-21T05:32:35.977Z,69.05
2022-10-21T05:35:04.104Z,67.84
2022-10-21T05:37:31.914Z,67.86
2022-10-21T05:40:01.076Z,68.74
2022-10-21T05:42:28.874Z,69.05
2022-10-21T05:44:56.686Z,70.35
2022-10-21T05:47:24.782Z,71.01
2022-10-21T05:49:52.932Z,71.66
2022-10-21T05:52:20.773Z,71.47
2022-10-21T05:54:48.598Z,71.43
2022-10-21T05:57:17.768Z,71.74
2022-10-21T05:59:45.576Z,71.47
2022-10-21T06:02:13.398Z,71.23
2022-10-21T06:04:41.291Z,71.04
2022-10-21T06:07:09.207Z,71.33
2022-10-21T06:09:37.733Z,70.58
2022-10-21T06:12:06.669Z,71.48
2022-10-21T06:14:36.601Z,70.96
2022-10-21T06:17:04.557Z,70.88
2022-10-21T06:19:32.602Z,70.68
2022-10-21T06:22:00.472Z,70.63
2022-10-21T06:24:29.831Z,69.67
2022-10-21T06:26:57.662Z,70.09
2022-10-21T06:29:25.606Z,69.37
2022-10-21T06:31:54.793Z,69.30
2022-10-21T06:34:22.781Z,69.06
2022-10-21T06:36:50.537Z,68.90
2022-10-21T06:39:18.329Z,68.67
2022-10-21T06:41:46.194Z,68.50
2022-10-21T06:44:27.101Z,68.42
2022-10-21T06:46:56.259Z,68.33
2022-10-21T06:49:24.078Z,68.61
2022-10-21T06:51:52.132Z,68.92
2022-10-21T06:54:20.022Z,68.48
2022-10-21T06:56:47.832Z,68.72
2022-10-21T06:59:15.689Z,68.71
2022-10-21T07:02:00.532Z,69.03
2022-10-21T07:04:30.603Z,69.17
2022-10-21T07:06:58.772Z,68.89
2022-10-21T07:09:26.604Z,68.36
2022-10-21T07:11:54.626Z,68.19
2022-10-21T07:14:22.506Z,67.88
2022-10-21T07:16:51.446Z,67.90
2022-10-21T07:19:19.249Z,67.02
2022-10-21T07:21:49.146Z,66.62
2022-10-21T07:24:22.130Z,65.88
2022-10-21T07:26:50.875Z,65.45
2022-10-21T07:29:19.195Z,64.57
2022-10-21T07:31:46.986Z,64.04
2022-10-21T07:34:14.835Z,62.85
2022-10-21T07:36:47.824Z,63.21
2022-10-21T07:39:18.405Z,62.63
2022-10-21T07:41:48.334Z,62.58
2022-10-21T07:44:16.473Z,63.11
2022-10-21T07:46:45.999Z,61.56
2022-10-21T07:49:14.782Z,62.13
2022-10-21T07:51:45.199Z,61.36
2022-10-21T07:54:13.689Z,61.46
2022-10-21T07:56:44.960Z,60.37
2022-10-21T07:59:14.305Z,59.59
2022-10-21T08:01:44.353Z,60.25
2022-10-21T08:04:13.921Z,59.73
2022-10-21T08:06:42.274Z,59.67
2022-10-21T08:09:10.370Z,59.60
2022-10-21T08:11:39.035Z,59.94
2022-10-21T08:14:10.818Z,59.61
2022-10-21T08:16:39.343Z,60.08
2022-10-21T08:19:08.206Z,59.39
2022-10-21T08:21:37.912Z,59.11
2022-10-21T08:24:06.211Z,59.34
2022-10-21T08:26:34.065Z,59.63
2022-10-21T08:29:03.320Z,59.00
2022-10-21T08:31:32.732Z,58.65
2022-10-21T08:34:00.980Z,58.77
2022-10-21T08:36:28.794Z,58.49
2022-10-21T08:38:56.651Z,59.03
2022-10-21T08:41:52.292Z,58.40
2022-10-21T08:44:36.811Z,57.76
2022-10-21T08:47:14.551Z,57.23
2022-10-21T08:49:51.747Z,57.13
2022-10-21T08:52:24.054Z,56.79
2022-10-21T08:54:56.333Z,56.50
2022-10-21T08:57:24.375Z,55.97
2022-10-21T08:59:52.265Z,55.25
2022-10-21T09:02:30.816Z,55.19
2022-10-21T09:05:19.608Z,55.15
2022-10-21T09:07:57.192Z,54.82
2022-10-21T09:10:39.047Z,54.11
2022-10-21T09:13:14.394Z,53.83
2022-10-21T09:15:52.464Z,53.75
2022-10-21T09:18:33.816Z,53.61
2022-10-21T09:21:10.522Z,53.74
2022-10-21T09:23:53.077Z,53.47
2022-10-21T09:26:34.383Z,53.69
2022-10-21T09:29:09.415Z,53.75
2022-10-21T09:31:37.473Z,54.05
2022-10-21T09:34:17.668Z,53.71
2022-10-21T09:36:48.881Z,53.82
2022-10-21T09:39:22.587Z,53.65
2022-10-21T09:41:58.264Z,53.65
2022-10-21T09:44:27.960Z,53.34
2022-10-21T09:46:55.808Z,53.71
2022-10-21T09:52:20.795Z,53.28
2022-10-21T09:54:49.546Z,54.05
2022-10-21T09:57:23.390Z,53.54
2022-10-21T09:59:56.564Z,53.36
2022-10-21T10:02:31.262Z,53.27
2022-10-21T10:05:00.484Z,53.53
2022-10-21T10:07:33.460Z,52.95
2022-10-21T10:10:01.484Z,52.67
2022-10-21T10:12:30.657Z,52.64
2022-10-21T10:15:26.930Z,52.79
2022-10-21T10:17:58.317Z,52.92
2022-10-21T10:20:27.897Z,52.70
2022-10-21T10:23:10.319Z,52.64
2022-10-21T10:25:40.204Z,53.31
2022-10-21T10:28:20.700Z,52.68
2022-10-21T10:30:50.748Z,52.54
2022-10-21T10:33:21.627Z,52.98
2022-10-21T10:35:52.940Z,52.65
2022-10-21T10:38:24.726Z,53.19
2022-10-21T10:40:56.339Z,53.03
2022-10-21T10:43:30.454Z,52.89
2022-10-21T10:46:00.693Z,53.16
2022-10-21T10:48:36.624Z,53.43
2022-10-21T10:51:09.293Z,53.11
2022-10-21T10:53:38.559Z,52.95
2022-10-21T10:56:20.637Z,53.62
2022-10-21T10:58:54.609Z,52.97
2022-10-21T11:01:28.913Z,52.95
2022-10-21T11:04:00.712Z,53.03
2022-10-21T11:06:36.324Z,52.87
2022-10-21T11:09:07.724Z,52.85
2022-10-21T11:11:38.213Z,52.55
2022-10-21T11:14:15.320Z,52.61
2022-10-21T11:17:00.527Z,52.79
2022-10-21T11:19:35.640Z,52.66
2022-10-21T11:22:13.729Z,52.59
2022-10-21T11:24:55.287Z,52.96
2022-10-21T11:27:34.715Z,52.47
2022-10-21T11:30:10.515Z,52.78
2022-10-21T11:33:03.533Z,53.29
2022-10-21T11:35:55.423Z,52.34
2022-10-21T11:38:41.784Z,52.20
2022-10-21T11:41:25.562Z,52.10
2022-10-21T11:44:05.907Z,52.22
2022-10-21T11:46:51.752Z,51.92
2022-10-21T11:49:37.182Z,51.11
2022-10-21T11:52:15.147Z,51.23
2022-10-21T11:55:08.829Z,50.87
2022-10-21T11:57:46.112Z,50.98
2022-10-21T12:00:18.942Z,51.23
2022-10-21T12:02:55.196Z,50.87
2022-10-21T12:05:31.482Z,51.09
2022-10-21T12:08:12.983Z,50.85
2022-10-21T12:10:48.207Z,50.66
2022-10-21T12:13:22.783Z,50.44
2022-10-21T12:15:55.034Z,50.27
2022-10-21T12:18:24.804Z,50.30
2022-10-21T12:20:54.319Z,50.65
2022-10-21T12:23:24.833Z,50.56
2022-10-21T12:26:14.080Z,50.68
2022-10-21T12:28:48.470Z,50.27
2022-10-21T12:31:30.347Z,50.55
2022-10-21T12:33:59.022Z,50.29
2022-10-21T12:36:49.407Z,50.44
2022-10-21T12:39:38.887Z,50.26
2022-10-21T12:42:13.698Z,50.71
2022-10-21T12:44:47.398Z,50.98
2022-10-21T12:47:29.545Z,51.07
2022-10-21T12:50:23.996Z,50.53
2022-10-21T12:53:07.780Z,50.94
2022-10-21T12:55:41.115Z,50.71
2022-10-21T12:58:23.365Z,50.42
2022-10-21T13:00:54.691Z,50.84
2022-10-21T13:03:23.686Z,50.53
2022-10-21T13:06:04.095Z,50.69
2022-10-21T13:08:40.472Z,50.57
2022-10-21T13:11:22.789Z,50.63
2022-10-21T13:14:26.571Z,50.33
2022-10-21T13:16:54.356Z,50.61
2022-10-21T13:19:35.525Z,50.54
2022-10-21T13:22:11.240Z,50.74
2022-10-21T13:24:39.986Z,50.82
2022-10-21T13:27:27.581Z,51.04
2022-10-21T13:29:57.491Z,51.02
2022-10-21T13:32:33.404Z,51.21
2022-10-21T13:35:07.942Z,51.37
2022-10-21T13:37:38.811Z,51.26
2022-10-21T13:40:14.494Z,51.01
2022-10-21T13:42:45.637Z,51.73
2022-10-21T13:45:25.113Z,51.25
2022-10-21T13:48:07.620Z,51.41
2022-10-21T13:50:40.015Z,51.37
2022-10-21T13:53:24.716Z,51.41
2022-10-21T13:55:58.723Z,51.68
2022-10-21T13:58:27.593Z,51.27
2022-10-21T14:00:58.997Z,51.33
2022-10-21T14:03:28.121Z,51.32
2022-10-21T14:05:59.410Z,51.91
2022-10-21T14:08:31.874Z,51.56
2022-10-21T14:11:02.875Z,51.87
2022-10-21T14:13:35.700Z,52.05
2022-10-21T14:16:05.713Z,51.59
2022-10-21T14:18:37.416Z,52.00
2022-10-21T14:21:07.175Z,51.99
2022-10-21T14:23:35.589Z,51.31
2022-10-21T14:26:07.263Z,52.04
2022-10-21T14:28:36.343Z,52.06
2022-10-21T14:31:11.537Z,51.95
2022-10-21T14:33:43.264Z,52.03
2022-10-21T14:36:15.333Z,52.18
2022-10-21T14:38:52.548Z,51.75
2022-10-21T14:41:24.578Z,51.99
2022-10-21T14:43:54.452Z,52.18
2022-10-21T14:46:23.676Z,52.61
2022-10-21T14:48:55.439Z,52.25
2022-10-21T14:51:24.245Z,52.31
2022-10-21T14:53:56.565Z,52.49
2022-10-21T14:56:30.778Z,52.22
2022-10-21T14:59:00.718Z,52.35
2022-10-21T15:01:30.248Z,52.62
2022-10-21T15:04:00.137Z,52.83
2022-10-21T15:06:29.964Z,52.70
2022-10-21T15:09:06.307Z,52.23
2022-10-21T15:11:41.590Z,52.44
2022-10-21T15:14:20.628Z,52.47
2022-10-21T15:16:53.567Z,52.82
2022-10-21T15:19:27.584Z,53.44
2022-10-21T15:21:59.487Z,53.46
2022-10-21T15:24:36.396Z,53.46
2022-10-21T15:27:05.701Z,53.45
2022-10-21T15:29:38.814Z,53.16
2022-10-21T15:32:08.000Z,53.81
2022-10-21T15:34:35.865Z,53.45
2022-10-21T15:37:03.911Z,52.99
2022-10-21T15:39:31.654Z,53.08
2022-10-21T15:42:00.111Z,53.52
2022-10-21T15:44:30.045Z,53.42
2022-10-21T15:47:00.858Z,53.57
2022-10-21T15:49:33.883Z,53.47
2022-10-21T15:52:01.747Z,53.87
2022-10-21T15:54:29.539Z,53.35
2022-10-21T15:56:59.699Z,53.24
2022-10-21T15:59:29.341Z,53.67
2022-10-21T16:01:57.783Z,53.52
2022-10-21T16:04:26.179Z,53.34
2022-10-21T16:06:56.296Z,54.10
2022-10-21T16:09:26.716Z,54.11
2022-10-21T16:12:00.386Z,54.17
2022-10-21T16:14:30.222Z,53.52
2022-10-21T16:16:59.952Z,54.37
2022-10-21T16:19:28.206Z,54.27
2022-10-21T16:21:57.606Z,54.15
2022-10-21T16:24:25.663Z,54.32
2022-10-21T16:26:53.607Z,54.22
2022-10-21T16:29:23.975Z,54.63
2022-10-21T16:31:52.195Z,55.00
2022-10-21T16:34:20.299Z,55.16
2022-10-21T16:36:48.126Z,55.63
2022-10-21T16:39:19.623Z,55.23
2022-10-21T16:41:47.428Z,55.74
2022-10-21T16:44:15.732Z,55.28
2022-10-21T16:46:50.127Z,55.69
2022-10-21T16:49:23.341Z,55.22
2022-10-21T16:51:53.047Z,54.91
2022-10-21T16:54:23.728Z,55.14
2022-10-21T16:56:54.722Z,54.66
2022-10-21T16:59:23.445Z,54.78
2022-10-21T17:01:51.545Z,54.40
2022-10-21T17:04:19.381Z,54.90
2022-10-21T17:06:47.126Z,54.23
2022-10-21T17:09:15.052Z,54.53
2022-10-21T17:11:44.583Z,54.40
2022-10-21T17:14:16.172Z,54.69
2022-10-21T17:16:45.216Z,54.26
2022-10-21T17:19:13.474Z,54.49
2022-10-21T17:21:41.299Z,54.96
2022-10-21T17:24:10.179Z,54.21
2022-10-21T17:26:38.371Z,54.56
2022-10-21T17:29:07.657Z,54.61
2022-10-21T17:31:36.907Z,54.84
2022-10-21T17:34:07.345Z,54.43
2022-10-21T17:36:35.475Z,54.81
2022-10-21T17:39:03.574Z,54.87
2022-10-21T17:41:31.636Z,54.88
2022-10-21T17:44:01.735Z,55.18
2022-10-21T17:46:31.033Z,54.83
2022-10-21T17:48:59.401Z,54.99
2022-10-21T17:51:27.257Z,55.14
2022-10-21T17:53:55.785Z,55.13
2022-10-21T17:56:24.182Z,55.29
2022-10-21T17:58:53.015Z,55.54
2022-10-21T18:01:22.037Z,55.48
2022-10-21T18:03:51.574Z,55.13
2022-10-21T18:06:19.671Z,55.34
2022-10-21T18:08:48.013Z,55.54
2022-10-21T18:11:18.311Z,55.76
2022-10-21T18:13:47.827Z,54.90
2022-10-21T18:16:19.482Z,55.44
2022-10-21T18:18:48.600Z,54.88
2022-10-21T18:21:19.585Z,55.43
2022-10-21T18:23:49.949Z,54.81
2022-10-21T18:26:19.953Z,55.16
2022-10-21T18:28:50.591Z,54.94
2022-10-21T18:31:20.163Z,54.57
2022-10-21T18:33:48.313Z,55.31
2022-10-21T18:36:18.890Z,54.94
2022-10-21T18:38:46.742Z,55.23
2022-10-21T18:41:20.159Z,54.43
2022-10-21T18:43:49.937Z,54.87
2022-10-21T18:46:17.830Z,54.55
2022-10-21T18:48:45.724Z,54.92
2022-10-21T18:51:16.456Z,55.33
2022-10-21T18:53:48.586Z,54.50
2022-10-21T18:56:20.070Z,55.41
2022-10-21T18:58:48.157Z,55.31
2022-10-21T19:01:16.622Z,55.01
2022-10-21T19:03:44.866Z,55.23
2022-10-21T19:06:17.614Z,55.04
2022-10-21T19:08:46.992Z,54.86
2022-10-21T19:11:14.845Z,55.38
2022-10-21T19:13:42.648Z,54.91
2022-10-21T19:16:10.478Z,55.64
2022-10-21T19:18:38.425Z,55.93
2022-10-21T19:21:06.724Z,55.53
2022-10-21T19:23:34.704Z,55.90
2022-10-21T19:26:04.864Z,55.97
2022-10-21T19:28:33.032Z,55.67
2022-10-21T19:31:01.256Z,55.91
2022-10-21T19:33:29.296Z,56.56
2022-10-21T19:36:00.053Z,56.42
2022-10-21T19:38:43.189Z,56.12
2022-10-21T19:41:16.304Z,56.82
2022-10-21T19:43:44.385Z,56.42
2022-10-21T19:46:17.434Z,56.89
2022-10-21T19:48:48.057Z,57.33
2022-10-21T19:51:18.843Z,57.28
2022-10-21T19:53:47.901Z,57.33
2022-10-21T19:56:20.917Z,57.82
2022-10-21T19:58:52.059Z,58.27
2022-10-21T20:01:21.746Z,58.12
2022-10-21T20:03:51.121Z,58.23
2022-10-21T20:06:22.078Z,58.55
2022-10-21T20:08:50.193Z,59.02
2022-10-21T20:11:21.188Z,58.80
2022-10-21T20:13:50.241Z,58.61
2022-10-21T20:16:20.175Z,59.04
2022-10-21T20:18:47.965Z,59.26
2022-10-21T20:21:15.793Z,59.22
2022-10-21T20:23:43.585Z,59.04
2022-10-21T20:26:11.423Z,58.99
2022-10-21T20:28:43.361Z,59.27
2022-10-21T20:31:12.825Z,59.27
2022-10-21T20:33:43.337Z,58.86
2022-10-21T20:36:13.752Z,58.47
2022-10-21T20:38:41.651Z,59.10
2022-10-21T20:41:12.144Z,58.83
2022-10-21T20:43:42.398Z,58.34
2022-10-21T20:46:13.598Z,58.55
2022-10-21T20:48:42.747Z,59.11
2022-10-21T20:51:12.237Z,59.23
2022-10-21T20:53:40.587Z,58.86
2022-10-21T20:56:08.944Z,58.81
2022-10-21T20:58:37.821Z,58.70
2022-10-21T21:01:09.849Z,58.89
2022-10-21T21:03:40.820Z,59.43
2022-10-21T21:06:10.445Z,59.41
2022-10-21T21:08:48.557Z,59.22
2022-10-21T21:11:26.512Z,59.87
2022-10-21T21:13:54.268Z,59.98
2022-10-21T21:16:23.889Z,60.78
2022-10-21T21:18:55.190Z,60.62
2022-10-21T21:21:25.554Z,61.53
2022-10-21T21:23:53.970Z,61.16
2022-10-21T21:26:24.814Z,61.02
2022-10-21T21:28:53.104Z,61.87
2022-10-21T21:31:23.025Z,61.78
2022-10-21T21:33:51.148Z,60.97
2022-10-21T21:36:21.436Z,61.58
2022-10-21T21:38:51.571Z,61.68
2022-10-21T21:41:19.459Z,61.89
2022-10-21T21:43:48.852Z,62.06
2022-10-21T21:46:22.788Z,61.35
2022-10-21T21:48:55.234Z,61.84
2022-10-21T21:51:27.430Z,61.30
2022-10-21T21:53:55.870Z,61.52
2022-10-21T21:56:24.616Z,61.57
2022-10-21T21:58:55.018Z,61.53
2022-10-21T22:01:25.300Z,61.19
2022-10-21T22:03:54.070Z,60.79
2022-10-21T22:06:23.409Z,60.83
2022-10-21T22:08:52.702Z,60.90
2022-10-21T22:11:24.865Z,61.67
2022-10-21T22:13:53.382Z,61.38
2022-10-21T22:16:24.365Z,61.24
2022-10-21T22:18:52.515Z,61.51
2022-10-21T22:21:20.826Z,62.00
2022-10-21T22:23:49.889Z,61.33
2022-10-21T22:26:23.058Z,61.79
2022-10-21T22:28:50.905Z,61.80
2022-10-21T22:31:20.011Z,61.85
2022-10-21T22:33:48.015Z,61.86
2022-10-21T22:36:16.648Z,62.76
2022-10-21T22:38:44.635Z,63.04
2022-10-21T22:41:13.297Z,62.32
2022-10-21T22:43:43.700Z,62.91
2022-10-21T22:48:59.616Z,63.05
2022-10-21T22:51:27.543Z,64.07
2022-10-21T22:53:56.851Z,63.87
2022-10-21T22:56:25.274Z,64.05
2022-10-21T22:58:54.781Z,64.54
2022-10-21T23:01:24.015Z,64.91
2022-10-21T23:03:52.476Z,65.24
2022-10-21T23:06:20.632Z,65.34
2022-10-21T23:08:48.523Z,65.14
2022-10-21T23:11:16.753Z,64.89
2022-10-21T23:13:56.247Z,64.20
2022-10-21T23:16:33.515Z,64.50
2022-10-21T23:19:01.327Z,64.27
2022-10-21T23:21:29.371Z,64.68
2022-10-21T23:23:57.313Z,64.98
2022-10-21T23:26:25.244Z,64.38
2022-10-21T23:28:53.354Z,65.37
2022-10-21T23:31:21.451Z,65.10
2022-10-21T23:33:51.680Z,64.84
2022-10-21T23:36:19.762Z,65.10
2022-10-21T23:38:47.646Z,65.06
2022-10-21T23:41:15.629Z,65.45
2022-10-21T23:43:43.437Z,66.32
2022-10-21T23:46:11.342Z,66.12
2022-10-21T23:48:39.190Z,67.17
2022-10-21T23:51:08.541Z,67.68
2022-10-21T23:53:36.543Z,67.90
2022-10-21T23:56:04.432Z,68.60
2022-10-21T23:58:32.232Z,68.48
